Time;durP1;ratioP1;P1;durP2;ratioP2;P2;SDS_P1;SDS_P2;PMS_P1;PMS_P2;Temp;Humidity;BMP_temperature;BMP_pressure;BME280_temperature;BME280_humidity;BME280_pressure;Samples;Min_cycle;Max_cycle;Signal;HPM_P1;HPM_P2
2022/12/13 00:01:59;;;;;;;;;;;;;;;;;;5089056;28;1349;-70
2022/12/13 00:04:24;;;;;;;;;;;;;;;;;;5091026;28;899;-69
2022/12/13 00:06:50;;;;;;;;;;;;;;;;;;5090027;28;1304;-69
2022/12/13 00:09:16;;;;;;;;;;;;;;;;;;5091815;28;824;-66
2022/12/13 00:11:42;;;;;;;;;;;;;;;;;;5090455;28;1241;-66
2022/12/13 00:14:08;;;;;;;;;;;;;;;;;;5090812;28;1968;-66
2022/12/13 00:16:34;;;;;;;;;;;;;;;;;;5090541;28;949;-67
2022/12/13 00:18:59;;;;;;;;;;;;;;;;;;5090099;28;1209;-66
2022/12/13 00:21:26;;;;;;;;;;;;;;;;;;5091849;28;801;-65
2022/12/13 00:23:51;;;;;;;;;;;;;;;;;;5091138;28;1037;-68
2022/12/13 00:26:22;;;;;;;;;;;;;;;;;;5091159;28;884;-65
2022/12/13 00:28:48;;;;;;;;;;;;;;;;;;5090427;28;843;-64
2022/12/13 00:31:14;;;;;;;;;;;;;;;;;;5089255;28;1353;-65
2022/12/13 00:33:39;;;;;;;;;;;;;;;;;;5091096;28;1953;-64
2022/12/13 00:36:06;;;;;;;;;;;;;;;;;;5071912;28;1186;-65
2022/12/13 00:38:32;;;;;;;;;;;;;;;;;;5090738;28;895;-65
2022/12/13 00:40:57;;;;;;;;;;;;;;;;;;5090258;28;916;-67
2022/12/13 00:43:22;;;;;;;;;;;;;;;;;;5072635;28;1202;-67
2022/12/13 00:45:48;;;;;;;;;;;;;;;;;;5088597;28;1364;-64
2022/12/13 00:48:13;;;;;;;;;;;;;;;;;;5090511;28;1219;-65
2022/12/13 00:50:39;;;;;;;;;;;;;;;;;;5072708;28;1292;-65
2022/12/13 00:53:04;;;;;;;;;;;;;;;;;;5089941;28;832;-70
2022/12/13 00:55:29;;;;;;;;;;;;;;;;;;5089777;28;1964;-69
2022/12/13 00:57:55;;;;;;;;;;;;;;;;;;5089814;28;899;-69
2022/12/13 01:00:20;;;;;;;;;;;;;;;;;;5090803;28;884;-69
2022/12/13 01:02:46;;;;;;;;;;;;;;;;;;5094595;28;1267;-69
2022/12/13 01:05:11;;;;;;;;;;;;;;;;;;5090481;28;1244;-69
2022/12/13 01:07:37;;;;;;;;;;;;;;;;;;5111636;28;1132;-69
2022/12/13 01:10:03;;;;;;;;;;;;;;;;;;5091151;28;1278;-69
2022/12/13 01:12:29;;;;;;;;;;;;;;;;;;5107600;28;1223;-69
2022/12/13 01:14:54;;;;;;;;;;;;;;;;;;5113853;28;1963;-69
2022/12/13 01:17:19;;;;;;;;;;;;;;;;;;5113846;28;769;-66
2022/12/13 01:19:44;;;;;;;;;;;;;;;;;;5095989;28;1123;-66
2022/12/13 01:22:10;;;;;;;;;;;;;;;;;;5113366;28;911;-66
2022/12/13 01:24:36;;;;;;;;;;;;;;;;;;5112684;28;1384;-66
2022/12/13 01:27:01;;;;;;;;;;;;;;;;;;5113627;28;911;-65
2022/12/13 01:29:26;;;;;;;;;;;;;;;;;;5096116;28;1337;-66
2022/12/13 01:31:52;;;;;;;;;;;;;;;;;;5112716;28;813;-65
2022/12/13 01:34:18;;;;;;;;;;;;;;;;;;5112977;28;1902;-66
2022/12/13 01:36:44;;;;;;;;;;;;;;;;;;5114500;28;898;-66
2022/12/13 01:39:11;;;;;;;;;;;;;;;;;;5096064;28;1296;-66
2022/12/13 01:41:36;;;;;;;;;;;;;;;;;;5114366;28;824;-66
2022/12/13 01:44:03;;;;;;;;;;;;;;;;;;5113639;27;963;-66
2022/12/13 01:46:32;;;;;;;;;;;;;;;;;;5113647;28;1060;-66
2022/12/13 01:49:09;;;;;;;;;;;;;;;;;;5113828;28;896;-66
2022/12/13 01:51:43;;;;;;;;;;;;;;;;;;5113368;28;1440;-66
2022/12/13 01:54:10;;;;;;;;;;;;;;;;;;5114656;28;1905;-66
2022/12/13 01:56:37;;;;;;;;;;;;;;;;;;5115076;28;955;-66
2022/12/13 01:59:04;;;;;;;;;;;;;;;;;;5114425;28;983;-66
2022/12/13 02:01:30;;;;;;;;;;;;;;;;;;5114534;28;1127;-66
2022/12/13 02:03:55;;;;;;;;;;;;;;;;;;5113097;28;809;-66
2022/12/13 02:06:32;;;;;;;;;;;;;;;;;;5114763;27;888;-66
2022/12/13 02:08:59;;;;;;;;;;;;;;;;;;5112671;28;1162;-66
2022/12/13 02:11:25;;;;;;;;;;;;;;;;;;5113312;28;962;-66
2022/12/13 02:13:50;;;;;;;;;;;;;;;;;;5111610;28;1897;-66
2022/12/13 02:16:34;;;;;;;;;;;;;;;;;;5113001;28;819;-66
2022/12/13 02:19:22;;;;;;;;;;;;;;;;;;5113109;28;833;-66
2022/12/13 02:22:05;;;;;;;;;;;;;;;;;;5113374;28;994;-64
2022/12/13 02:24:40;;;;;;;;;;;;;;;;;;5113108;28;894;-65
2022/12/13 02:27:08;;;;;;;;;;;;;;;;;;5112848;28;886;-64
2022/12/13 02:29:33;;;;;;;;;;;;;;;;;;5112828;28;919;-64
2022/12/13 02:31:58;;;;;;;;;;;;;;;;;;5112579;28;1030;-65
2022/12/13 02:34:25;;;;;;;;;;;;;;;;;;5113078;28;1897;-65
2022/12/13 02:37:06;;;;;;;;;;;;;;;;;;5111302;28;1229;-64
2022/12/13 02:39:38;;;;;;;;;;;;;;;;;;5113176;28;852;-64
2022/12/13 02:42:08;;;;;;;;;;;;;;;;;;5111274;28;1284;-64
2022/12/13 02:44:36;;;;;;;;;;;;;;;;;;5112762;28;1517;-64
2022/12/13 02:47:22;;;;;;;;;;;;;;;;;;5112619;28;1210;-65
2022/12/13 02:49:49;;;;;;;;;;;;;;;;;;5112701;28;1308;-65
2022/12/13 02:52:16;;;;;;;;;;;;;;;;;;5111089;28;1104;-64
2022/12/13 02:54:42;;;;;;;;;;;;;;;;;;5112353;28;1910;-65
2022/12/13 02:57:27;;;;;;;;;;;;;;;;;;5112441;27;911;-64
2022/12/13 02:59:52;;;;;;;;;;;;;;;;;;5110779;28;1390;-65
2022/12/13 03:02:23;;;;;;;;;;;;;;;;;;5112873;28;907;-65
2022/12/13 03:08:10;;;;;;;;;;;;;;;;;;5111833;28;729;-65
2022/12/13 03:10:39;;;;;;;;;;;;;;;;;;5112389;28;943;-65
2022/12/13 03:15:57;;;;;;;;;;;;;;;;;;5111952;28;682;-65
2022/12/13 03:18:25;;;;;;;;;;;;;;;;;;5112129;27;829;-65
2022/12/13 03:20:58;;;;;;;;;;;;;;;;;;5112326;28;841;-65
2022/12/13 03:23:23;;;;;;;;;;;;;;;;;;5111263;28;1154;-65
2022/12/13 03:25:50;;;;;;;;;;;;;;;;;;5110626;28;758;-65
2022/12/13 03:28:16;;;;;;;;;;;;;;;;;;5109311;28;1213;-65
2022/12/13 03:30:41;;;;;;;;;;;;;;;;;;5112265;28;836;-65
2022/12/13 03:33:06;;;;;;;;;;;;;;;;;;5093539;28;1253;-65
2022/12/13 03:35:32;;;;;;;;;;;;;;;;;;5110279;28;1893;-65
2022/12/13 03:37:58;;;;;;;;;;;;;;;;;;5109976;28;1288;-65
2022/12/13 03:40:24;;;;;;;;;;;;;;;;;;5112895;28;900;-65
2022/12/13 03:42:49;;;;;;;;;;;;;;;;;;5112524;28;1023;-65
2022/12/13 03:45:15;;;;;;;;;;;;;;;;;;5094283;28;1432;-65
2022/12/13 03:47:41;;;;;;;;;;;;;;;;;;5111242;28;1096;-65
2022/12/13 03:50:08;;;;;;;;;;;;;;;;;;5110935;28;1598;-65
2022/12/13 03:52:33;;;;;;;;;;;;;;;;;;5110182;28;828;-65
2022/12/13 03:54:58;;;;;;;;;;;;;;;;;;5109447;28;1907;-65
2022/12/13 03:57:23;;;;;;;;;;;;;;;;;;5110491;28;987;-65
2022/12/13 03:59:49;;;;;;;;;;;;;;;;;;5111573;28;817;-65
2022/12/13 04:02:14;;;;;;;;;;;;;;;;;;5109909;28;884;-65
2022/12/13 04:04:39;;;;;;;;;;;;;;;;;;5110328;28;824;-64
2022/12/13 04:07:04;;;;;;;;;;;;;;;;;;5109657;28;848;-65
2022/12/13 04:09:30;;;;;;;;;;;;;;;;;;5109909;28;1295;-64
2022/12/13 04:14:39;;;;;;;;;;;;;;;;;;5110289;28;1979;-65
2022/12/13 04:17:04;;;;;;;;;;;;;;;;;;5092748;28;1355;-65
2022/12/13 04:19:29;;;;;;;;;;;;;;;;;;5111472;28;895;-65
2022/12/13 04:21:54;;;;;;;;;;;;;;;;;;5109556;28;1045;-68
2022/12/13 04:24:24;;;;;;;;;;;;;;;;;;5109535;28;824;-68
2022/12/13 04:26:49;;;;;;;;;;;;;;;;;;5110683;28;879;-68
2022/12/13 04:29:14;;;;;;;;;;;;;;;;;;5109378;28;1348;-64
2022/12/13 04:31:39;;;;;;;;;;;;;;;;;;5109809;28;1276;-65
2022/12/13 04:34:05;;;;;;;;;;;;;;;;;;5110794;28;1897;-68
2022/12/13 04:36:30;;;;;;;;;;;;;;;;;;5111343;28;892;-69
2022/12/13 04:38:55;;;;;;;;;;;;;;;;;;5112118;28;1006;-68
2022/12/13 04:41:20;;;;;;;;;;;;;;;;;;5117732;27;919;-69
2022/12/13 04:43:50;;;;;;;;;;;;;;;;;;5117370;27;891;-68
2022/12/13 04:46:15;;;;;;;;;;;;;;;;;;5115709;28;1225;-69
2022/12/13 04:48:40;;;;;;;;;;;;;;;;;;5117365;27;1142;-69
2022/12/13 04:51:05;;;;;;;;;;;;;;;;;;5115741;28;1264;-69
2022/12/13 04:53:31;;;;;;;;;;;;;;;;;;5116479;28;1906;-69
2022/12/13 04:55:56;;;;;;;;;;;;;;;;;;5115136;28;1387;-68
2022/12/13 04:58:21;;;;;;;;;;;;;;;;;;5117795;27;851;-65
2022/12/13 05:00:47;;;;;;;;;;;;;;;;;;5117818;27;852;-65
2022/12/13 05:03:12;;;;;;;;;;;;;;;;;;5115943;28;935;-65
2022/12/13 05:05:39;;;;;;;;;;;;;;;;;;5116552;28;1300;-65
2022/12/13 05:08:04;;;;;;;;;;;;;;;;;;5116380;28;1384;-65
2022/12/13 05:10:30;;;;;;;;;;;;;;;;;;5100380;28;1273;-65
2022/12/13 05:12:55;;;;;;;;;;;;;;;;;;5099249;28;1438;-65
2022/12/13 05:15:20;;;;;;;;;;;;;;;;;;5118397;27;1897;-66
2022/12/13 05:17:45;;;;;;;;;;;;;;;;;;5118265;27;840;-65
2022/12/13 05:20:10;;;;;;;;;;;;;;;;;;5118033;27;801;-65
2022/12/13 05:22:36;;;;;;;;;;;;;;;;;;5117909;27;832;-65
2022/12/13 05:25:02;;;;;;;;;;;;;;;;;;5099344;28;1655;-65
2022/12/13 05:27:27;;;;;;;;;;;;;;;;;;5116895;28;895;-65
2022/12/13 05:29:56;;;;;;;;;;;;;;;;;;5099593;28;1202;-65
2022/12/13 05:32:21;;;;;;;;;;;;;;;;;;5115992;28;1213;-65
2022/12/13 05:34:46;;;;;;;;;;;;;;;;;;5115894;28;1965;-66
2022/12/13 05:37:11;;;;;;;;;;;;;;;;;;5117023;27;813;-66
2022/12/13 05:39:37;;;;;;;;;;;;;;;;;;5115930;28;895;-66
2022/12/13 05:42:02;;;;;;;;;;;;;;;;;;5114817;28;1178;-66
2022/12/13 05:44:27;;;;;;;;;;;;;;;;;;5117063;27;994;-65
2022/12/13 05:46:52;;;;;;;;;;;;;;;;;;5098394;28;1163;-66
2022/12/13 05:49:17;;;;;;;;;;;;;;;;;;5116171;27;895;-66
2022/12/13 05:51:43;;;;;;;;;;;;;;;;;;5107002;28;1194;-65
2022/12/13 05:54:08;;;;;;;;;;;;;;;;;;5094458;28;1918;-66
2022/12/13 05:56:33;;;;;;;;;;;;;;;;;;5092407;28;1159;-66
2022/12/13 05:58:59;;;;;;;;;;;;;;;;;;5091877;28;1156;-66
2022/12/13 06:01:24;;;;;;;;;;;;;;;;;;5092179;28;1338;-65
2022/12/13 06:03:50;;;;;;;;;;;;;;;;;;5093310;28;1096;-66
2022/12/13 06:06:17;;;;;;;;;;;;;;;;;;5092380;28;817;-66
2022/12/13 06:08:42;;;;;;;;;;;;;;;;;;5092331;28;825;-66
2022/12/13 06:11:08;;;;;;;;;;;;;;;;;;5091173;28;1245;-66
2022/12/13 06:13:33;;;;;;;;;;;;;;;;;;5093023;28;1963;-66
2022/12/13 06:16:02;;;;;;;;;;;;;;;;;;5090794;28;829;-66
2022/12/13 06:18:31;;;;;;;;;;;;;;;;;;5091227;28;1163;-66
2022/12/13 06:21:06;;;;;;;;;;;;;;;;;;5091798;28;1202;-66
2022/12/13 06:23:32;;;;;;;;;;;;;;;;;;5092906;28;1010;-66
2022/12/13 06:25:57;;;;;;;;;;;;;;;;;;5092030;28;920;-66
2022/12/13 06:28:23;;;;;;;;;;;;;;;;;;5091189;28;784;-66
2022/12/13 06:30:51;;;;;;;;;;;;;;;;;;5092966;28;887;-66
2022/12/13 06:33:17;;;;;;;;;;;;;;;;;;5090862;28;1255;-66
2022/12/13 06:35:42;;;;;;;;;;;;;;;;;;5091524;28;1965;-66
2022/12/13 06:38:08;;;;;;;;;;;;;;;;;;5090637;28;888;-65
2022/12/13 06:40:33;;;;;;;;;;;;;;;;;;5092282;28;1092;-66
2022/12/13 06:42:58;;;;;;;;;;;;;;;;;;5090446;28;1432;-65
2022/12/13 06:45:24;;;;;;;;;;;;;;;;;;5091144;28;1178;-65
2022/12/13 06:47:49;;;;;;;;;;;;;;;;;;5093101;28;1077;-65
2022/12/13 06:50:14;;;;;;;;;;;;;;;;;;5092734;28;841;-65
2022/12/13 06:52:40;;;;;;;;;;;;;;;;;;5093619;28;828;-65
2022/12/13 06:55:05;;;;;;;;;;;;;;;;;;5091201;28;1914;-65
2022/12/13 06:57:31;;;;;;;;;;;;;;;;;;5092252;28;1302;-65
2022/12/13 06:59:56;;;;;;;;;;;;;;;;;;5091705;28;911;-65
2022/12/13 07:02:22;;;;;;;;;;;;;;;;;;5090690;28;1243;-66
2022/12/13 07:04:47;;;;;;;;;;;;;;;;;;5092001;28;841;-66
2022/12/13 07:07:12;;;;;;;;;;;;;;;;;;5090026;28;833;-66
2022/12/13 07:09:38;;;;;;;;;;;;;;;;;;5074010;28;1191;-66
2022/12/13 07:12:03;;;;;;;;;;;;;;;;;;5089663;28;1175;-65
2022/12/13 07:14:28;;;;;;;;;;;;;;;;;;5073784;28;1955;-65
2022/12/13 07:16:53;;;;;;;;;;;;;;;;;;5091765;28;974;-66
2022/12/13 07:19:19;;;;;;;;;;;;;;;;;;5089668;28;1320;-66
2022/12/13 07:21:44;;;;;;;;;;;;;;;;;;5091623;28;966;-66
2022/12/13 07:24:09;;;;;;;;;;;;;;;;;;5090999;28;987;-66
2022/12/13 07:26:34;;;;;;;;;;;;;;;;;;5090185;28;1172;-66
2022/12/13 07:28:59;;;;;;;;;;;;;;;;;;5090533;28;849;-65
2022/12/13 07:31:25;;;;;;;;;;;;;;;;;;5090619;28;1142;-66
2022/12/13 07:33:50;;;;;;;;;;;;;;;;;;5073433;28;1952;-66
2022/12/13 07:36:17;;;;;;;;;;;;;;;;;;5090666;28;947;-65
2022/12/13 07:38:43;;;;;;;;;;;;;;;;;;5091699;28;1062;-66
2022/12/13 07:41:08;;;;;;;;;;;;;;;;;;5088785;28;1361;-66
2022/12/13 07:43:34;;;;;;;;;;;;;;;;;;5089384;28;1214;-66
2022/12/13 07:46:00;;;;;;;;;;;;;;;;;;5088657;28;1187;-65
2022/12/13 07:48:25;;;;;;;;;;;;;;;;;;5090735;28;1290;-65
2022/12/13 07:50:59;;;;;;;;;;;;;;;;;;5088958;28;1222;-66
2022/12/13 07:53:24;;;;;;;;;;;;;;;;;;5090746;28;906;-66
2022/12/13 07:55:49;;;;;;;;;;;;;;;;;;5089305;28;1915;-66
2022/12/13 07:58:14;;;;;;;;;;;;;;;;;;5090464;28;947;-66
2022/12/13 08:00:41;;;;;;;;;;;;;;;;;;5090061;28;1237;-66
2022/12/13 08:03:06;;;;;;;;;;;;;;;;;;5088452;28;924;-65
2022/12/13 08:05:32;;;;;;;;;;;;;;;;;;5088071;28;1226;-66
2022/12/13 08:07:58;;;;;;;;;;;;;;;;;;5087420;28;1182;-65
2022/12/13 08:10:24;;;;;;;;;;;;;;;;;;5089064;28;832;-66
2022/12/13 08:12:49;;;;;;;;;;;;;;;;;;5087397;28;1191;-66
2022/12/13 08:15:15;;;;;;;;;;;;;;;;;;5088319;28;1959;-66
2022/12/13 08:17:41;;;;;;;;;;;;;;;;;;5089724;28;959;-66
2022/12/13 08:20:06;;;;;;;;;;;;;;;;;;5072102;28;1243;-65
2022/12/13 08:22:31;;;;;;;;;;;;;;;;;;5090246;28;1300;-65
2022/12/13 08:24:57;;;;;;;;;;;;;;;;;;5090867;28;841;-64
2022/12/13 08:27:22;;;;;;;;;;;;;;;;;;5091426;28;852;-64
2022/12/13 08:29:47;;;;;;;;;;;;;;;;;;5090135;28;1161;-64
2022/12/13 08:32:13;;;;;;;;;;;;;;;;;;5090393;28;1013;-64
2022/12/13 08:34:40;;;;;;;;;;;;;;;;;;5089286;28;1957;-65
2022/12/13 08:37:05;;;;;;;;;;;;;;;;;;5088562;28;1241;-65
2022/12/13 08:39:33;;;;;;;;;;;;;;;;;;5089331;28;1311;-65
2022/12/13 08:41:58;;;;;;;;;;;;;;;;;;5090065;28;837;-65
2022/12/13 08:44:23;;;;;;;;;;;;;;;;;;5088928;28;1183;-65
2022/12/13 08:46:49;;;;;;;;;;;;;;;;;;5089968;28;1226;-65
2022/12/13 08:49:14;;;;;;;;;;;;;;;;;;5089973;28;1250;-65
2022/12/13 08:51:40;;;;;;;;;;;;;;;;;;5090745;28;908;-65
2022/12/13 08:54:05;;;;;;;;;;;;;;;;;;5088492;28;1906;-65
2022/12/13 08:56:30;;;;;;;;;;;;;;;;;;5090849;28;840;-65
2022/12/13 08:58:56;;;;;;;;;;;;;;;;;;5090735;28;888;-65
2022/12/13 09:01:21;;;;;;;;;;;;;;;;;;5071794;28;1153;-65
2022/12/13 09:03:46;;;;;;;;;;;;;;;;;;5090892;28;947;-65
2022/12/13 09:06:14;;;;;;;;;;;;;;;;;;5090648;28;769;-65
2022/12/13 09:08:39;;;;;;;;;;;;;;;;;;5089898;28;1304;-65
2022/12/13 09:11:05;;;;;;;;;;;;;;;;;;5089908;28;899;-65
2022/12/13 09:13:32;;;;;;;;;;;;;;;;;;5089590;28;1194;-65
2022/12/13 09:15:58;;;;;;;;;;;;;;;;;;5091107;28;1925;-64
2022/12/13 09:18:23;;;;;;;;;;;;;;;;;;5089309;28;1233;-67
2022/12/13 09:20:48;;;;;;;;;;;;;;;;;;5090817;28;849;-67
2022/12/13 09:23:14;;;;;;;;;;;;;;;;;;5089201;28;892;-68
2022/12/13 09:25:39;;;;;;;;;;;;;;;;;;5090846;28;1205;-68
2022/12/13 09:28:06;;;;;;;;;;;;;;;;;;5094163;28;888;-68
2022/12/13 09:30:32;;;;;;;;;;;;;;;;;;5093428;28;1150;-68
2022/12/13 09:32:57;;;;;;;;;;;;;;;;;;5093578;28;904;-67
2022/12/13 09:35:22;;;;;;;;;;;;;;;;;;5094025;28;1909;-68
2022/12/13 09:37:48;;;;;;;;;;;;;;;;;;5093580;28;798;-68
2022/12/13 09:40:21;;;;;;;;;;;;;;;;;;5075740;28;1321;-68
2022/12/13 09:42:49;;;;;;;;;;;;;;;;;;5093993;28;820;-68
2022/12/13 09:45:15;;;;;;;;;;;;;;;;;;5091559;28;979;-68
2022/12/13 09:47:41;;;;;;;;;;;;;;;;;;5091529;28;1314;-68
2022/12/13 09:50:32;;;;;;;;;;;;;;;;;;5091094;28;1121;-68
2022/12/13 09:52:58;;;;;;;;;;;;;;;;;;5087436;28;1416;-69
2022/12/13 09:55:29;;;;;;;;;;;;;;;;;;5091399;28;1914;-67
2022/12/13 09:57:56;;;;;;;;;;;;;;;;;;5092543;28;836;-68
2022/12/13 10:00:32;;;;;;;;;;;;;;;;;;5074937;28;1297;-68
2022/12/13 10:02:57;;;;;;;;;;;;;;;;;;5092044;28;1324;-68
2022/12/13 10:05:36;;;;;;;;;;;;;;;;;;5093086;28;817;-67
2022/12/13 10:08:06;;;;;;;;;;;;;;;;;;5091424;28;1247;-67
2022/12/13 10:10:31;;;;;;;;;;;;;;;;;;5091418;28;1288;-68
2022/12/13 10:13:13;;;;;;;;;;;;;;;;;;5091459;28;1047;-68
2022/12/13 10:15:40;;;;;;;;;;;;;;;;;;5075043;28;1913;-68
2022/12/13 10:18:05;;;;;;;;;;;;;;;;;;5091047;28;1337;-68
2022/12/13 10:20:32;;;;;;;;;;;;;;;;;;5074475;28;1393;-68
2022/12/13 10:22:57;;;;;;;;;;;;;;;;;;5092662;28;1132;-68
2022/12/13 10:25:58;;;;;;;;;;;;;;;;;;5090560;28;817;-69
2022/12/13 10:28:26;;;;;;;;;;;;;;;;;;5032043;28;1362;-68
2022/12/13 10:30:51;;;;;;;;;;;;;;;;;;5084420;28;965;-68
2022/12/13 10:33:21;;;;;;;;;;;;;;;;;;5090285;28;1178;-68
2022/12/13 10:36:00;;;;;;;;;;;;;;;;;;5092070;28;1933;-69
2022/12/13 10:38:26;;;;;;;;;;;;;;;;;;5090615;28;1184;-69
2022/12/13 10:40:51;;;;;;;;;;;;;;;;;;5092824;28;829;-68
2022/12/13 10:43:21;;;;;;;;;;;;;;;;;;5073562;28;1451;-69
2022/12/13 10:45:56;;;;;;;;;;;;;;;;;;5091208;28;1155;-69
2022/12/13 10:48:23;;;;;;;;;;;;;;;;;;5089956;28;1134;-69
2022/12/13 10:50:57;;;;;;;;;;;;;;;;;;5091960;28;805;-69
2022/12/13 10:53:26;;;;;;;;;;;;;;;;;;5089559;28;887;-69
2022/12/13 10:55:55;;;;;;;;;;;;;;;;;;5089340;28;1883;-69
2022/12/13 10:58:20;;;;;;;;;;;;;;;;;;5088729;28;1190;-69
2022/12/13 11:00:46;;;;;;;;;;;;;;;;;;5089418;28;1364;-69
2022/12/13 11:03:26;;;;;;;;;;;;;;;;;;5089226;28;1470;-69
2022/12/13 11:06:01;;;;;;;;;;;;;;;;;;5090383;28;841;-69
2022/12/13 11:08:26;;;;;;;;;;;;;;;;;;5091267;28;817;-69
2022/12/13 11:11:02;;;;;;;;;;;;;;;;;;5090523;28;1385;-69
2022/12/13 11:13:44;;;;;;;;;;;;;;;;;;5089984;28;849;-69
2022/12/13 11:16:19;;;;;;;;;;;;;;;;;;5091542;28;849;-69
2022/12/13 11:18:49;;;;;;;;;;;;;;;;;;5090480;28;1186;-68
2022/12/13 11:21:21;;;;;;;;;;;;;;;;;;5091360;28;971;-68
2022/12/13 11:23:47;;;;;;;;;;;;;;;;;;5091086;28;1170;-67
2022/12/13 11:26:18;;;;;;;;;;;;;;;;;;5090452;28;1234;-67
2022/12/13 11:29:01;;;;;;;;;;;;;;;;;;5092311;28;1046;-67
2022/12/13 11:31:32;;;;;;;;;;;;;;;;;;5092386;28;915;-68
2022/12/13 11:33:58;;;;;;;;;;;;;;;;;;5092375;28;1906;-67
2022/12/13 11:36:47;;;;;;;;;;;;;;;;;;5089618;28;1250;-68
2022/12/13 11:39:19;;;;;;;;;;;;;;;;;;5090482;28;828;-69
2022/12/13 11:41:47;;;;;;;;;;;;;;;;;;5089724;28;1186;-67
2022/12/13 11:44:20;;;;;;;;;;;;;;;;;;5088924;28;1190;-68
2022/12/13 11:46:49;;;;;;;;;;;;;;;;;;5090927;28;849;-68
2022/12/13 11:49:16;;;;;;;;;;;;;;;;;;5087920;28;1225;-68
2022/12/13 11:51:49;;;;;;;;;;;;;;;;;;5089840;28;1278;-68
2022/12/13 11:54:19;;;;;;;;;;;;;;;;;;5089114;28;1969;-68
2022/12/13 11:56:44;;;;;;;;;;;;;;;;;;5089407;28;1209;-68
2022/12/13 11:59:15;;;;;;;;;;;;;;;;;;5090674;28;912;-68
2022/12/13 12:01:40;;;;;;;;;;;;;;;;;;5090683;28;1093;-68
2022/12/13 12:04:11;;;;;;;;;;;;;;;;;;5090959;28;1034;-68
2022/12/13 12:06:57;;;;;;;;;;;;;;;;;;5091503;28;852;-68
2022/12/13 12:09:24;;;;;;;;;;;;;;;;;;5089795;28;999;-68
2022/12/13 12:11:49;;;;;;;;;;;;;;;;;;5089719;28;1260;-68
2022/12/13 12:14:34;;;;;;;;;;;;;;;;;;5089281;28;1890;-68
2022/12/13 12:17:01;;;;;;;;;;;;;;;;;;5089852;28;1174;-68
2022/12/13 12:19:34;;;;;;;;;;;;;;;;;;5089880;28;797;-68
2022/12/13 12:22:02;;;;;;;;;;;;;;;;;;5090398;28;920;-68
2022/12/13 12:24:45;;;;;;;;;;;;;;;;;;5088605;28;1211;-68
2022/12/13 12:27:17;;;;;;;;;;;;;;;;;;5088686;28;1265;-68
2022/12/13 12:29:43;;;;;;;;;;;;;;;;;;5091017;28;904;-68
2022/12/13 12:32:27;;;;;;;;;;;;;;;;;;5090098;28;896;-67
2022/12/13 12:35:01;;;;;;;;;;;;;;;;;;5090428;28;1902;-68
2022/12/13 12:37:29;;;;;;;;;;;;;;;;;;5089810;28;840;-68
2022/12/13 12:39:54;;;;;;;;;;;;;;;;;;5090571;28;900;-68
2022/12/13 12:42:22;;;;;;;;;;;;;;;;;;5088247;28;1325;-68
2022/12/13 12:44:47;;;;;;;;;;;;;;;;;;5089954;28;995;-68
2022/12/13 12:47:22;;;;;;;;;;;;;;;;;;5088293;28;1336;-69
2022/12/13 12:49:47;;;;;;;;;;;;;;;;;;5089949;28;1227;-68
2022/12/13 12:52:26;;;;;;;;;;;;;;;;;;5088003;28;1451;-68
2022/12/13 12:55:04;;;;;;;;;;;;;;;;;;5088438;28;1906;-68
2022/12/13 12:57:45;;;;;;;;;;;;;;;;;;5089442;28;883;-68
2022/12/13 13:00:14;;;;;;;;;;;;;;;;;;5092975;28;876;-69
2022/12/13 13:02:58;;;;;;;;;;;;;;;;;;5095759;28;833;-68
2022/12/13 13:05:27;;;;;;;;;;;;;;;;;;5094496;28;793;-69
2022/12/13 13:08:00;;;;;;;;;;;;;;;;;;5093587;28;1235;-68
2022/12/13 13:10:26;;;;;;;;;;;;;;;;;;5093793;28;825;-69
2022/12/13 13:12:52;;;;;;;;;;;;;;;;;;5075974;28;1439;-68
2022/12/13 13:15:40;;;;;;;;;;;;;;;;;;5093173;28;1889;-68
2022/12/13 13:18:25;;;;;;;;;;;;;;;;;;5083978;28;1188;-68
2022/12/13 13:21:10;;;;;;;;;;;;;;;;;;5092266;28;1330;-68
2022/12/13 13:23:36;;;;;;;;;;;;;;;;;;5093102;28;1064;-68
2022/12/13 13:26:01;;;;;;;;;;;;;;;;;;5093622;28;1175;-69
2022/12/13 13:28:26;;;;;;;;;;;;;;;;;;5098243;28;1258;-69
2022/12/13 13:31:03;;;;;;;;;;;;;;;;;;5111159;28;1161;-69
2022/12/13 13:33:46;;;;;;;;;;;;;;;;;;5112711;28;1143;-68
2022/12/13 13:36:30;;;;;;;;;;;;;;;;;;5111552;28;1962;-69
2022/12/13 13:38:55;;;;;;;;;;;;;;;;;;5111072;28;1223;-69
2022/12/13 13:41:39;;;;;;;;;;;;;;;;;;5113327;28;1206;-69
2022/12/13 13:44:23;;;;;;;;;;;;;;;;;;5114062;28;900;-68
2022/12/13 13:47:07;;;;;;;;;;;;;;;;;;5114890;28;978;-69
2022/12/13 13:49:33;;;;;;;;;;;;;;;;;;5114353;28;1092;-70
2022/12/13 13:52:18;;;;;;;;;;;;;;;;;;5112539;28;856;-69
2022/12/13 13:55:13;;;;;;;;;;;;;;;;;;5112713;28;1938;-69
2022/12/13 13:57:39;;;;;;;;;;;;;;;;;;5114036;28;836;-69
2022/12/13 14:00:13;;;;;;;;;;;;;;;;;;5114125;28;931;-69
2022/12/13 14:02:57;;;;;;;;;;;;;;;;;;5112746;28;1297;-70
2022/12/13 14:05:42;;;;;;;;;;;;;;;;;;5112311;28;1090;-68
2022/12/13 14:08:24;;;;;;;;;;;;;;;;;;5112584;28;1130;-68
2022/12/13 14:11:05;;;;;;;;;;;;;;;;;;5111455;28;1212;-68
2022/12/13 14:13:36;;;;;;;;;;;;;;;;;;5112246;28;1205;-67
2022/12/13 14:16:18;;;;;;;;;;;;;;;;;;5113084;28;1906;-67
2022/12/13 14:18:43;;;;;;;;;;;;;;;;;;5115013;28;875;-67
2022/12/13 14:21:08;;;;;;;;;;;;;;;;;;5112613;28;1256;-67
2022/12/13 14:23:40;;;;;;;;;;;;;;;;;;5112680;28;1530;-68
2022/12/13 14:26:31;;;;;;;;;;;;;;;;;;5113797;28;891;-68
2022/12/13 14:28:58;;;;;;;;;;;;;;;;;;5113490;28;840;-68
2022/12/13 14:31:24;;;;;;;;;;;;;;;;;;5112684;28;793;-68
2022/12/13 14:33:52;;;;;;;;;;;;;;;;;;5113493;28;1307;-68
2022/12/13 14:36:24;;;;;;;;;;;;;;;;;;5112951;28;1902;-68
2022/12/13 14:38:57;;;;;;;;;;;;;;;;;;5114312;28;915;-68
2022/12/13 14:41:22;;;;;;;;;;;;;;;;;;5112564;28;1190;-68
2022/12/13 14:43:48;;;;;;;;;;;;;;;;;;5113076;28;1241;-67
2022/12/13 14:46:14;;;;;;;;;;;;;;;;;;5095723;28;1258;-67
2022/12/13 14:48:44;;;;;;;;;;;;;;;;;;5112839;28;1306;-69
2022/12/13 14:51:31;;;;;;;;;;;;;;;;;;5112627;28;867;-67
2022/12/13 14:53:57;;;;;;;;;;;;;;;;;;5112740;28;1906;-67
2022/12/13 14:56:22;;;;;;;;;;;;;;;;;;5112283;28;844;-68
2022/12/13 14:58:51;;;;;;;;;;;;;;;;;;5112833;28;1046;-68
2022/12/13 15:01:26;;;;;;;;;;;;;;;;;;5112574;28;899;-68
2022/12/13 15:03:51;;;;;;;;;;;;;;;;;;5112534;28;883;-68
2022/12/13 15:06:18;;;;;;;;;;;;;;;;;;5110699;28;1193;-68
2022/12/13 15:08:45;;;;;;;;;;;;;;;;;;5112681;28;804;-68
2022/12/13 15:11:10;;;;;;;;;;;;;;;;;;5113044;28;868;-68
2022/12/13 15:13:42;;;;;;;;;;;;;;;;;;5112904;28;958;-68
2022/12/13 15:16:21;;;;;;;;;;;;;;;;;;5111520;28;1964;-68
2022/12/13 15:18:46;;;;;;;;;;;;;;;;;;5112721;28;1013;-68
2022/12/13 15:21:22;;;;;;;;;;;;;;;;;;5111118;28;828;-68
2022/12/13 15:23:48;;;;;;;;;;;;;;;;;;5112353;28;801;-69
2022/12/13 15:26:13;;;;;;;;;;;;;;;;;;5110439;28;1163;-68
2022/12/13 15:28:40;;;;;;;;;;;;;;;;;;5112665;28;924;-68
2022/12/13 15:31:06;;;;;;;;;;;;;;;;;;5110973;28;1075;-68
2022/12/13 15:33:32;;;;;;;;;;;;;;;;;;5110522;28;896;-68
2022/12/13 15:36:07;;;;;;;;;;;;;;;;;;5112232;28;1905;-68
2022/12/13 15:38:33;;;;;;;;;;;;;;;;;;5110685;28;1328;-68
2022/12/13 15:41:00;;;;;;;;;;;;;;;;;;5112202;28;780;-68
2022/12/13 15:43:42;;;;;;;;;;;;;;;;;;5111465;28;844;-68
2022/12/13 15:46:08;;;;;;;;;;;;;;;;;;5110739;28;1264;-69
2022/12/13 15:48:44;;;;;;;;;;;;;;;;;;5109968;28;1246;-69
2022/12/13 15:51:14;;;;;;;;;;;;;;;;;;5110022;28;1108;-68
2022/12/13 15:53:58;;;;;;;;;;;;;;;;;;5112566;28;1398;-68
2022/12/13 15:56:31;;;;;;;;;;;;;;;;;;5111320;28;792;-68
2022/12/13 15:58:56;;;;;;;;;;;;;;;;;;5111813;28;825;-68
2022/12/13 16:01:26;;;;;;;;;;;;;;;;;;5112772;28;1038;-69
2022/12/13 16:03:51;;;;;;;;;;;;;;;;;;5095003;28;1190;-68
2022/12/13 16:06:17;;;;;;;;;;;;;;;;;;5093982;28;1317;-68
2022/12/13 16:08:48;;;;;;;;;;;;;;;;;;5113173;28;979;-68
2022/12/13 16:11:14;;;;;;;;;;;;;;;;;;5094479;28;1322;-68
2022/12/13 16:13:39;;;;;;;;;;;;;;;;;;5111861;28;1248;-69
2022/12/13 16:16:23;;;;;;;;;;;;;;;;;;5111874;28;1890;-68
2022/12/13 16:18:53;;;;;;;;;;;;;;;;;;5111908;28;855;-68
2022/12/13 16:21:18;;;;;;;;;;;;;;;;;;5111289;28;804;-68
2022/12/13 16:23:44;;;;;;;;;;;;;;;;;;5110233;28;1213;-68
2022/12/13 16:26:12;;;;;;;;;;;;;;;;;;5110152;28;924;-67
2022/12/13 16:28:37;;;;;;;;;;;;;;;;;;5110362;28;1166;-68
2022/12/13 16:31:10;;;;;;;;;;;;;;;;;;5111659;28;911;-67
2022/12/13 16:33:36;;;;;;;;;;;;;;;;;;5109856;28;1398;-68
2022/12/13 16:36:01;;;;;;;;;;;;;;;;;;5109414;28;1959;-68
2022/12/13 16:38:26;;;;;;;;;;;;;;;;;;5109477;28;1258;-68
2022/12/13 16:40:53;;;;;;;;;;;;;;;;;;5110152;28;951;-68
2022/12/13 16:43:19;;;;;;;;;;;;;;;;;;5110582;28;919;-68
2022/12/13 16:45:48;;;;;;;;;;;;;;;;;;5110190;28;1237;-68
2022/12/13 16:48:13;;;;;;;;;;;;;;;;;;5110378;28;1202;-68
2022/12/13 16:50:42;;;;;;;;;;;;;;;;;;5092767;28;1249;-68
2022/12/13 16:53:08;;;;;;;;;;;;;;;;;;5108791;28;1308;-67
2022/12/13 16:55:34;;;;;;;;;;;;;;;;;;5110603;28;2052;-67
2022/12/13 16:58:00;;;;;;;;;;;;;;;;;;5110245;28;1139;-68
2022/12/13 17:00:26;;;;;;;;;;;;;;;;;;5110452;28;1276;-68
2022/12/13 17:02:52;;;;;;;;;;;;;;;;;;5111215;28;1214;-69
2022/12/13 17:05:17;;;;;;;;;;;;;;;;;;5110352;28;864;-72
2022/12/13 17:07:43;;;;;;;;;;;;;;;;;;5110957;28;1189;-70
2022/12/13 17:10:08;;;;;;;;;;;;;;;;;;5108758;28;1201;-71
2022/12/13 17:12:34;;;;;;;;;;;;;;;;;;5091470;28;1348;-71
2022/12/13 17:14:59;;;;;;;;;;;;;;;;;;5110075;28;1941;-71
2022/12/13 17:17:24;;;;;;;;;;;;;;;;;;5108667;28;1201;-71
2022/12/13 17:19:49;;;;;;;;;;;;;;;;;;5109103;28;925;-71
2022/12/13 17:22:15;;;;;;;;;;;;;;;;;;5092377;28;1163;-70
2022/12/13 17:24:40;;;;;;;;;;;;;;;;;;5110455;28;1241;-70
2022/12/13 17:27:06;;;;;;;;;;;;;;;;;;5092290;28;1241;-70
2022/12/13 17:29:32;;;;;;;;;;;;;;;;;;5111923;28;848;-70